createdAt,value
2018-12-03T00:02:27.068Z,82.23
2018-12-03T00:04:55.466Z,82.26
2018-12-03T00:07:23.924Z,82.23
2018-12-03T00:09:52.468Z,82.25
2018-12-03T00:12:20.797Z,82.13
2018-12-03T00:14:49.114Z,82.25
2018-12-03T00:17:17.730Z,82.20
2018-12-03T00:19:45.908Z,82.12
2018-12-03T00:22:14.468Z,82.21
2018-12-03T00:24:42.833Z,82.06
2018-12-03T00:27:11.404Z,82.13
2018-12-03T00:29:39.720Z,81.97
2018-12-03T00:32:08.896Z,81.98
2018-12-03T00:34:37.466Z,81.66
2018-12-03T00:37:05.809Z,82.17
2018-12-03T00:39:34.225Z,82.10
2018-12-03T00:42:02.656Z,81.98
2018-12-03T00:44:31.845Z,81.97
2018-12-03T00:47:00.324Z,82.15
2018-12-03T00:49:28.645Z,82.22
2018-12-03T00:51:56.975Z,82.16
2018-12-03T00:54:25.309Z,81.94
2018-12-03T00:56:53.631Z,82.05
2018-12-03T00:59:21.946Z,81.94
2018-12-03T01:01:50.271Z,82.23
2018-12-03T01:04:18.594Z,82.07
2018-12-03T01:06:46.927Z,82.12
2018-12-03T01:09:15.250Z,82.26
2018-12-03T01:11:43.584Z,82.63
2018-12-03T01:14:11.899Z,82.55
2018-12-03T01:16:40.226Z,82.56
2018-12-03T01:19:08.554Z,82.61
2018-12-03T01:21:36.882Z,82.59
2018-12-03T01:24:05.203Z,82.25
2018-12-03T01:26:33.525Z,82.38
2018-12-03T01:29:01.861Z,82.37
2018-12-03T01:31:30.184Z,82.33
2018-12-03T01:33:58.514Z,82.18
2018-12-03T01:36:26.841Z,82.38
2018-12-03T01:38:55.171Z,82.24
2018-12-03T01:41:23.497Z,82.39
2018-12-03T01:43:51.813Z,82.62
2018-12-03T01:46:20.167Z,82.67
2018-12-03T01:48:48.485Z,82.72
2018-12-03T01:51:16.808Z,82.61
2018-12-03T01:53:45.137Z,82.39
2018-12-03T01:56:13.461Z,82.54
2018-12-03T01:58:41.780Z,82.42
2018-12-03T02:01:10.108Z,82.49
2018-12-03T02:03:38.522Z,82.58
2018-12-03T02:06:06.852Z,82.80
2018-12-03T02:08:35.169Z,82.99
2018-12-03T02:11:03.494Z,82.82
2018-12-03T02:13:31.822Z,83.07
2018-12-03T02:16:00.139Z,83.01
2018-12-03T02:18:28.458Z,82.94
2018-12-03T02:20:56.771Z,82.92
2018-12-03T02:23:25.102Z,82.86
2018-12-03T02:25:53.416Z,82.81
2018-12-03T02:28:21.730Z,82.60
2018-12-03T02:30:50.051Z,82.57
2018-12-03T02:33:18.370Z,82.53
2018-12-03T02:35:46.694Z,82.53
2018-12-03T02:38:15.010Z,82.60
2018-12-03T02:40:43.317Z,82.59
2018-12-03T02:43:11.639Z,82.63
2018-12-03T02:45:39.951Z,82.68
2018-12-03T02:48:08.726Z,82.74
2018-12-03T02:50:37.041Z,82.49
2018-12-03T02:53:05.361Z,82.94
2018-12-03T02:55:33.684Z,82.83
2018-12-03T02:58:02.000Z,82.98
2018-12-03T03:00:30.316Z,82.80
2018-12-03T03:02:58.638Z,82.72
2018-12-03T03:05:27.066Z,83.02
2018-12-03T03:07:55.386Z,83.09
2018-12-03T03:10:23.703Z,83.56
2018-12-03T03:12:52.024Z,83.31
2018-12-03T03:15:20.339Z,83.68
2018-12-03T03:17:48.655Z,83.72
2018-12-03T03:20:16.982Z,83.86
2018-12-03T03:22:45.303Z,83.98
2018-12-03T03:25:13.624Z,83.63
2018-12-03T03:27:41.945Z,83.97
2018-12-03T03:30:10.261Z,84.20
2018-12-03T03:32:38.571Z,84.40
2018-12-03T03:35:06.895Z,84.08
2018-12-03T03:37:35.497Z,84.30
2018-12-03T03:40:03.809Z,84.43
2018-12-03T03:42:32.126Z,84.71
2018-12-03T03:45:00.446Z,84.55
2018-12-03T03:47:28.776Z,84.60
2018-12-03T03:49:57.395Z,84.81
2018-12-03T03:52:25.728Z,85.06
2018-12-03T03:54:54.027Z,84.99
2018-12-03T03:57:22.345Z,85.07
2018-12-03T03:59:50.658Z,85.30
2018-12-03T04:02:18.968Z,84.95
2018-12-03T04:04:47.283Z,85.07
2018-12-03T04:07:15.599Z,85.21
2018-12-03T04:09:43.924Z,85.28
2018-12-03T04:12:12.232Z,85.40
2018-12-03T04:14:40.536Z,85.37
2018-12-03T04:17:08.858Z,85.56
2018-12-03T04:19:37.174Z,85.63
2018-12-03T04:22:05.487Z,85.80
2018-12-03T04:24:33.800Z,85.73
2018-12-03T04:27:02.119Z,85.77
2018-12-03T04:29:30.426Z,86.00
2018-12-03T04:31:58.742Z,85.85
2018-12-03T04:34:27.071Z,85.96
2018-12-03T04:36:55.375Z,85.94
2018-12-03T04:39:23.725Z,86.17
2018-12-03T04:41:52.047Z,86.01
2018-12-03T04:44:20.360Z,86.07
2018-12-03T04:46:48.685Z,86.06
2018-12-03T04:49:16.992Z,86.08
2018-12-03T04:51:45.412Z,86.22
2018-12-03T04:54:13.717Z,86.27
2018-12-03T04:56:42.035Z,86.25
2018-12-03T04:59:10.357Z,86.20
2018-12-03T05:01:38.691Z,85.90
2018-12-03T05:04:07.021Z,85.58
2018-12-03T05:06:35.355Z,85.20
2018-12-03T05:09:03.684Z,84.88
2018-12-03T05:11:32.008Z,84.58
2018-12-03T05:14:00.332Z,84.44
2018-12-03T05:16:28.669Z,84.54
2018-12-03T05:18:56.994Z,84.50
2018-12-03T05:21:25.321Z,84.47
2018-12-03T05:23:53.643Z,84.39
2018-12-03T05:26:21.984Z,84.42
2018-12-03T05:28:50.319Z,84.54
2018-12-03T05:31:18.649Z,84.47
2018-12-03T05:33:46.973Z,84.32
2018-12-03T05:36:15.295Z,84.23
2018-12-03T05:38:43.619Z,84.62
2018-12-03T05:41:11.946Z,84.87
2018-12-03T05:43:40.270Z,84.69
2018-12-03T05:46:08.593Z,84.63
2018-12-03T05:48:36.915Z,84.82
2018-12-03T05:51:05.240Z,84.69
2018-12-03T05:53:33.591Z,84.70
2018-12-03T05:56:01.940Z,84.93
2018-12-03T05:58:30.267Z,84.97
2018-12-03T06:00:58.580Z,84.86
2018-12-03T06:03:26.917Z,84.86
2018-12-03T06:05:55.231Z,84.75
2018-12-03T06:08:23.595Z,84.92
2018-12-03T06:10:51.873Z,84.86
2018-12-03T06:13:20.215Z,84.83
2018-12-03T06:15:48.543Z,84.80
2018-12-03T06:18:17.177Z,84.82
2018-12-03T06:20:45.512Z,84.75
2018-12-03T06:23:13.835Z,85.01
2018-12-03T06:25:42.388Z,84.84
2018-12-03T06:28:10.506Z,84.87
2018-12-03T06:30:38.859Z,84.90
2018-12-03T06:33:07.189Z,84.93
2018-12-03T06:35:35.512Z,85.08
2018-12-03T06:38:03.836Z,84.97
2018-12-03T06:40:32.151Z,85.03
2018-12-03T06:43:00.526Z,85.09
2018-12-03T06:45:28.854Z,84.86
2018-12-03T06:47:57.178Z,85.04
2018-12-03T06:50:25.501Z,85.06
2018-12-03T06:52:54.187Z,85.06
2018-12-03T06:55:22.543Z,84.96
2018-12-03T06:57:50.879Z,85.01
2018-12-03T07:00:19.219Z,85.15
2018-12-03T07:02:47.544Z,85.29
2018-12-03T07:05:15.878Z,85.10
2018-12-03T07:07:44.211Z,85.07
2018-12-03T07:10:12.533Z,85.02
2018-12-03T07:12:40.863Z,84.92
2018-12-03T07:15:09.171Z,84.93
2018-12-03T07:17:37.503Z,84.90
2018-12-03T07:20:05.841Z,85.16
2018-12-03T07:22:34.167Z,85.36
2018-12-03T07:25:02.790Z,85.33
2018-12-03T07:27:31.064Z,85.28
2018-12-03T07:29:59.386Z,85.15
2018-12-03T07:32:27.721Z,85.03
2018-12-03T07:34:56.042Z,85.01
2018-12-03T07:37:24.394Z,84.97
2018-12-03T07:39:52.720Z,85.24
2018-12-03T07:42:21.049Z,85.30
2018-12-03T07:44:49.372Z,85.24
2018-12-03T07:47:17.717Z,85.19
2018-12-03T07:49:46.045Z,84.98
2018-12-03T07:52:14.594Z,84.83
2018-12-03T07:54:42.912Z,84.65
2018-12-03T07:57:11.274Z,84.53
2018-12-03T07:59:39.600Z,84.74
2018-12-03T08:02:07.924Z,84.81
2018-12-03T08:04:36.252Z,84.75
2018-12-03T08:07:04.577Z,84.71
2018-12-03T08:09:32.903Z,84.66
2018-12-03T08:12:01.240Z,84.63
2018-12-03T08:14:29.566Z,84.58
2018-12-03T08:16:57.892Z,84.66
2018-12-03T08:19:26.214Z,84.73
2018-12-03T08:21:54.539Z,84.64
2018-12-03T08:24:22.867Z,84.59
2018-12-03T08:26:51.182Z,84.56
2018-12-03T08:29:19.505Z,84.67
2018-12-03T08:31:47.829Z,84.68
2018-12-03T08:34:16.168Z,84.65
2018-12-03T08:36:44.488Z,84.72
2018-12-03T08:39:12.815Z,84.67
2018-12-03T08:41:41.145Z,84.50
2018-12-03T08:44:09.475Z,84.76
2018-12-03T08:46:38.176Z,84.90
2018-12-03T08:49:06.502Z,84.71
2018-12-03T08:51:34.832Z,84.64
2018-12-03T08:54:03.157Z,84.59
2018-12-03T08:56:31.489Z,84.54
2018-12-03T08:58:59.849Z,85.01
2018-12-03T09:01:28.181Z,85.23
2018-12-03T09:03:56.831Z,85.83
2018-12-03T09:06:25.152Z,85.70
2018-12-03T09:08:53.478Z,86.08
2018-12-03T09:11:22.411Z,86.14
2018-12-03T09:13:50.132Z,86.67
2018-12-03T09:16:18.463Z,86.43
2018-12-03T09:18:46.785Z,86.57
2018-12-03T09:21:15.100Z,86.71
2018-12-03T09:23:43.419Z,87.18
2018-12-03T09:26:11.757Z,87.28
2018-12-03T09:28:40.116Z,87.21
2018-12-03T09:31:08.425Z,86.55
2018-12-03T09:33:36.747Z,86.92
2018-12-03T09:36:05.077Z,87.16
2018-12-03T09:38:33.402Z,87.21
2018-12-03T09:41:01.728Z,87.16
2018-12-03T09:43:30.046Z,87.09
2018-12-03T09:45:58.379Z,87.20
2018-12-03T09:48:26.704Z,87.14
2018-12-03T09:50:55.022Z,87.29
2018-12-03T09:53:23.353Z,87.26
2018-12-03T09:55:51.674Z,86.94
2018-12-03T09:58:20.004Z,86.87
2018-12-03T10:00:48.461Z,86.72
2018-12-03T10:03:16.778Z,86.82
2018-12-03T10:05:45.105Z,86.93
2018-12-03T10:08:13.427Z,86.85
2018-12-03T10:10:41.748Z,86.97
2018-12-03T10:13:10.071Z,87.04
2018-12-03T10:15:38.405Z,86.98
2018-12-03T10:18:06.730Z,87.08
2018-12-03T10:20:35.054Z,87.28
2018-12-03T10:23:03.376Z,87.28
2018-12-03T10:25:31.708Z,87.35
2018-12-03T10:28:00.036Z,87.35
2018-12-03T10:30:28.368Z,87.26
2018-12-03T10:32:56.692Z,87.29
2018-12-03T10:35:25.021Z,87.20
2018-12-03T10:37:53.343Z,87.12
2018-12-03T10:40:21.668Z,87.05
2018-12-03T10:42:50.754Z,87.03
2018-12-03T10:45:19.077Z,86.99
2018-12-03T10:47:47.420Z,87.09
2018-12-03T10:50:15.752Z,86.95
2018-12-03T10:52:44.155Z,86.87
2018-12-03T10:55:12.455Z,87.06
2018-12-03T10:57:40.774Z,87.06
2018-12-03T11:00:09.107Z,86.97
2018-12-03T11:02:37.490Z,86.99
2018-12-03T11:05:08.820Z,87.08
2018-12-03T11:07:37.154Z,86.92
2018-12-03T11:10:05.569Z,86.89
2018-12-03T11:12:33.887Z,86.94
2018-12-03T11:15:02.218Z,86.99
2018-12-03T11:17:30.542Z,87.00
2018-12-03T11:19:58.871Z,86.98
2018-12-03T11:22:27.187Z,86.94
2018-12-03T11:24:55.509Z,86.98
2018-12-03T11:27:25.234Z,87.07
2018-12-03T11:29:52.177Z,87.00
2018-12-03T11:32:20.495Z,86.89
2018-12-03T11:34:48.831Z,86.79
2018-12-03T11:37:17.152Z,86.69
2018-12-03T11:39:45.484Z,86.76
2018-12-03T11:42:13.801Z,86.73
2018-12-03T11:44:42.134Z,86.77
2018-12-03T11:47:10.469Z,86.65
2018-12-03T11:49:38.806Z,86.54
2018-12-03T11:52:07.416Z,86.65
2018-12-03T11:54:35.739Z,86.75
2018-12-03T11:57:04.068Z,86.80
2018-12-03T11:59:32.418Z,86.84
2018-12-03T12:02:00.743Z,86.77
2018-12-03T12:04:30.185Z,86.82
2018-12-03T12:06:57.463Z,86.91
2018-12-03T12:09:25.814Z,86.93
2018-12-03T12:11:54.130Z,86.95
2018-12-03T12:14:22.449Z,87.00
2018-12-03T12:16:50.783Z,87.04
2018-12-03T12:19:19.138Z,86.98
2018-12-03T12:21:47.474Z,87.03
2018-12-03T12:24:15.825Z,87.00
2018-12-03T12:26:44.143Z,86.97
2018-12-03T12:29:12.470Z,86.98
2018-12-03T12:31:40.805Z,86.91
2018-12-03T12:34:09.143Z,86.86
2018-12-03T12:36:37.491Z,86.84
2018-12-03T12:39:05.793Z,86.73
2018-12-03T12:41:34.127Z,86.64
2018-12-03T12:44:02.448Z,86.55
2018-12-03T12:46:30.783Z,86.49
2018-12-03T12:48:59.153Z,86.47
2018-12-03T12:51:27.481Z,86.46
2018-12-03T12:53:55.798Z,86.42
2018-12-03T12:56:24.133Z,86.44
2018-12-03T12:58:52.454Z,86.47
2018-12-03T13:01:20.786Z,86.53
2018-12-03T13:03:49.112Z,86.55
2018-12-03T13:06:17.500Z,86.54
2018-12-03T13:08:45.827Z,86.66
2018-12-03T13:11:14.166Z,86.70
2018-12-03T13:13:42.504Z,86.78
2018-12-03T13:16:10.833Z,86.82
2018-12-03T13:18:39.168Z,86.93
2018-12-03T13:21:07.505Z,86.90
2018-12-03T13:23:36.067Z,86.90
2018-12-03T13:26:04.401Z,87.07
2018-12-03T13:28:32.736Z,87.16
2018-12-03T13:31:01.075Z,87.23
2018-12-03T13:33:29.423Z,87.37
2018-12-03T13:35:57.761Z,87.35
2018-12-03T13:38:26.125Z,87.40
2018-12-03T13:40:54.442Z,87.44
2018-12-03T13:43:22.785Z,87.38
2018-12-03T13:45:51.788Z,87.41
2018-12-03T13:48:20.119Z,87.40
2018-12-03T13:50:48.444Z,87.36
2018-12-03T13:53:16.787Z,87.48
2018-12-03T13:55:45.135Z,87.36
2018-12-03T13:58:13.463Z,87.33
2018-12-03T14:00:41.803Z,87.41
2018-12-03T14:03:10.134Z,87.44
2018-12-03T14:05:38.503Z,87.41
2018-12-03T14:08:06.888Z,87.58
2018-12-03T14:10:35.223Z,87.63
2018-12-03T14:13:03.555Z,87.80
2018-12-03T14:15:31.910Z,87.70
2018-12-03T14:18:00.230Z,87.73
2018-12-03T14:20:28.557Z,87.81
2018-12-03T14:22:56.877Z,87.87
2018-12-03T14:25:25.214Z,87.87
2018-12-03T14:27:53.889Z,87.83
2018-12-03T14:30:22.222Z,87.91
2018-12-03T14:32:50.574Z,88.12
2018-12-03T14:35:18.924Z,88.12
2018-12-03T14:37:47.864Z,88.06
2018-12-03T14:40:16.186Z,88.06
2018-12-03T14:42:44.562Z,88.03
2018-12-03T14:45:13.239Z,88.02
2018-12-03T14:47:41.578Z,88.11
2018-12-03T14:50:10.226Z,88.20
2018-12-03T14:52:38.832Z,88.10
2018-12-03T14:55:07.412Z,88.09
2018-12-03T14:57:36.035Z,87.94
2018-12-03T15:00:04.375Z,87.96
2018-12-03T15:02:32.712Z,87.88
2018-12-03T15:05:01.043Z,87.90
2018-12-03T15:07:29.619Z,87.85
2018-12-03T15:09:57.781Z,87.82
2018-12-03T15:12:26.114Z,88.03
2018-12-03T15:14:54.442Z,88.01
2018-12-03T15:17:22.772Z,87.73
2018-12-03T15:19:51.098Z,87.83
2018-12-03T15:22:19.473Z,88.16
2018-12-03T15:24:47.815Z,88.05
2018-12-03T15:27:16.163Z,88.07
2018-12-03T15:29:44.494Z,88.22
2018-12-03T15:32:12.856Z,88.29
2018-12-03T15:34:41.187Z,88.25
2018-12-03T15:37:09.523Z,88.36
2018-12-03T15:39:37.875Z,88.33
2018-12-03T15:42:06.232Z,88.65
2018-12-03T15:44:34.556Z,88.34
2018-12-03T15:47:02.890Z,88.55
2018-12-03T15:49:31.260Z,88.33
2018-12-03T15:51:59.587Z,88.45
2018-12-03T15:54:27.930Z,88.49
2018-12-03T15:56:56.281Z,88.45
2018-12-03T15:59:24.621Z,88.48
2018-12-03T16:01:52.965Z,88.70
2018-12-03T16:04:21.303Z,88.46
2018-12-03T16:06:49.664Z,88.67
2018-12-03T16:09:17.991Z,88.67
2018-12-03T16:11:46.410Z,88.60
2018-12-03T16:14:14.967Z,88.76
2018-12-03T16:16:43.297Z,88.73
2018-12-03T16:19:11.657Z,88.63
2018-12-03T16:21:40.910Z,88.51
2018-12-03T16:24:09.658Z,88.67
2018-12-03T16:26:37.995Z,88.56
2018-12-03T16:29:06.360Z,88.50
2018-12-03T16:31:34.709Z,88.62
2018-12-03T16:34:03.049Z,88.42
2018-12-03T16:36:31.446Z,88.52
2018-12-03T16:38:59.771Z,88.47
2018-12-03T16:41:28.131Z,88.31
2018-12-03T16:43:56.557Z,88.34
2018-12-03T16:46:25.914Z,88.47
2018-12-03T16:48:54.345Z,88.46
2018-12-03T16:51:22.696Z,88.38
2018-12-03T16:53:51.030Z,88.40
2018-12-03T16:56:19.368Z,88.47
2018-12-03T16:58:47.682Z,88.66
2018-12-03T17:01:16.021Z,88.52
2018-12-03T17:03:44.399Z,88.61
2018-12-03T17:06:12.726Z,88.63
2018-12-03T17:08:41.207Z,88.61
2018-12-03T17:11:09.511Z,88.50
2018-12-03T17:13:37.880Z,88.65
2018-12-03T17:16:06.280Z,88.69
2018-12-03T17:18:34.618Z,88.73
2018-12-03T17:21:03.024Z,88.85
2018-12-03T17:23:31.576Z,88.87
2018-12-03T17:25:59.670Z,89.08
2018-12-03T17:28:28.266Z,89.17
2018-12-03T17:30:56.363Z,89.23
2018-12-03T17:33:24.919Z,89.57
2018-12-03T17:35:53.022Z,89.54
2018-12-03T17:38:21.353Z,89.61
2018-12-03T17:40:49.787Z,89.85
2018-12-03T17:43:18.132Z,89.84
2018-12-03T17:45:46.869Z,89.90
2018-12-03T17:48:14.786Z,90.00
2018-12-03T17:50:43.151Z,89.97
2018-12-03T17:53:11.558Z,90.02
2018-12-03T17:55:40.057Z,89.91
2018-12-03T17:58:08.385Z,90.06
2018-12-03T18:00:36.798Z,89.97
2018-12-03T18:03:05.139Z,90.00
2018-12-03T18:05:33.502Z,89.95
2018-12-03T18:08:01.851Z,89.83
2018-12-03T18:10:30.213Z,89.88
2018-12-03T18:12:58.547Z,89.91
2018-12-03T18:15:26.976Z,89.85
2018-12-03T18:17:55.651Z,89.97
2018-12-03T18:20:23.983Z,90.09
2018-12-03T18:22:52.368Z,90.17
2018-12-03T18:25:20.708Z,90.09
2018-12-03T18:27:49.282Z,90.08
2018-12-03T18:30:17.417Z,90.05
2018-12-03T18:32:45.824Z,89.96
2018-12-03T18:35:14.181Z,90.00
2018-12-03T18:37:42.511Z,89.97
2018-12-03T18:40:10.861Z,89.88
2018-12-03T18:42:40.500Z,89.91
2018-12-03T18:45:08.882Z,89.88
2018-12-03T18:47:37.206Z,89.96
2018-12-03T18:50:05.530Z,89.90
2018-12-03T18:52:33.934Z,89.83
2018-12-03T18:55:02.298Z,89.75
2018-12-03T18:57:30.637Z,89.83
2018-12-03T18:59:58.967Z,89.83
2018-12-03T19:02:27.763Z,89.88
2018-12-03T19:04:56.105Z,89.97
2018-12-03T19:07:24.438Z,90.03
2018-12-03T19:09:52.791Z,89.92
2018-12-03T19:12:21.111Z,89.88
2018-12-03T19:14:49.450Z,89.89
2018-12-03T19:17:17.844Z,89.96
2018-12-03T19:19:46.199Z,90.15
2018-12-03T19:22:14.539Z,90.46
2018-12-03T19:24:42.877Z,90.32
2018-12-03T19:27:11.217Z,90.36
2018-12-03T19:29:39.554Z,90.38
2018-12-03T19:32:07.892Z,90.28
2018-12-03T19:34:36.567Z,90.30
2018-12-03T19:37:04.901Z,90.33
2018-12-03T19:39:33.236Z,90.33
2018-12-03T19:42:01.576Z,90.33
2018-12-03T19:44:30.345Z,90.24
2018-12-03T19:46:58.694Z,90.28
2018-12-03T19:49:27.062Z,90.35
2018-12-03T19:51:55.535Z,90.22
2018-12-03T19:54:23.919Z,90.11
2018-12-03T19:56:52.262Z,90.13
2018-12-03T19:59:20.626Z,90.08
2018-12-03T20:01:49.277Z,90.15
2018-12-03T20:04:18.211Z,90.10
2018-12-03T20:06:47.022Z,90.18
2018-12-03T20:09:16.122Z,90.27
2018-12-03T20:11:44.529Z,90.18
2018-12-03T20:14:12.869Z,90.21
2018-12-03T20:16:41.220Z,90.30
2018-12-03T20:19:09.568Z,90.32
2018-12-03T20:21:39.131Z,90.21
2018-12-03T20:24:09.722Z,90.08
2018-12-03T20:26:39.243Z,90.15
2018-12-03T20:29:07.802Z,89.99
2018-12-03T20:31:36.239Z,89.86
2018-12-03T20:34:04.942Z,89.90
2018-12-03T20:36:33.792Z,89.90
2018-12-03T20:39:02.438Z,89.91
2018-12-03T20:41:30.941Z,90.01
2018-12-03T20:43:59.565Z,89.97
2018-12-03T20:46:27.929Z,89.95
2018-12-03T20:48:56.377Z,89.81
2018-12-03T20:51:25.050Z,89.76
2018-12-03T20:53:53.873Z,89.65
2018-12-03T20:56:22.258Z,89.77
2018-12-03T20:58:50.803Z,89.72
2018-12-03T21:01:19.221Z,89.70
2018-12-03T21:03:47.904Z,89.69
2018-12-03T21:06:17.143Z,89.78
2018-12-03T21:08:45.899Z,89.63
2018-12-03T21:11:15.523Z,89.52
2018-12-03T21:13:43.934Z,89.47
2018-12-03T21:16:12.555Z,89.46
2018-12-03T21:18:40.824Z,89.32
2018-12-03T21:21:19.877Z,89.32
2018-12-03T21:23:48.965Z,89.26
2018-12-03T21:26:17.352Z,89.18
2018-12-03T21:28:45.929Z,89.07
2018-12-03T21:31:14.264Z,89.03
2018-12-03T21:33:42.700Z,89.00
2018-12-03T21:36:11.065Z,88.91
2018-12-03T21:38:39.399Z,88.77
2018-12-03T21:41:07.746Z,88.76
2018-12-03T21:43:36.107Z,88.72
2018-12-03T21:46:04.405Z,89.05
2018-12-03T21:48:32.770Z,88.74
2018-12-03T21:51:01.103Z,88.61
2018-12-03T21:53:29.533Z,88.63
2018-12-03T21:55:57.996Z,88.47
2018-12-03T21:58:26.103Z,88.42
2018-12-03T22:00:54.713Z,88.50
2018-12-03T22:03:23.046Z,88.25
2018-12-03T22:05:51.375Z,88.00
2018-12-03T22:08:19.720Z,88.12
2018-12-03T22:10:48.062Z,88.14
2018-12-03T22:13:16.399Z,88.09
2018-12-03T22:15:44.747Z,88.07
2018-12-03T22:18:13.079Z,88.06
2018-12-03T22:20:41.423Z,87.93
2018-12-03T22:23:09.806Z,87.72
2018-12-03T22:25:38.141Z,87.79
2018-12-03T22:28:06.469Z,87.75
2018-12-03T22:30:34.810Z,87.76
2018-12-03T22:33:03.217Z,87.94
2018-12-03T22:35:31.562Z,87.98
2018-12-03T22:37:59.898Z,87.89
2018-12-03T22:40:28.236Z,87.86
2018-12-03T22:42:56.958Z,87.83
2018-12-03T22:45:25.271Z,87.90
2018-12-03T22:47:53.632Z,87.83
2018-12-03T22:50:21.968Z,87.73
2018-12-03T22:52:50.314Z,87.81
2018-12-03T22:55:18.640Z,87.86
2018-12-03T22:57:47.004Z,87.97
2018-12-03T23:00:15.338Z,87.98
2018-12-03T23:02:43.769Z,88.10
2018-12-03T23:05:12.108Z,88.05
2018-12-03T23:07:40.670Z,87.88
2018-12-03T23:10:08.804Z,87.84
2018-12-03T23:12:37.136Z,87.91
2018-12-03T23:15:05.475Z,87.87
2018-12-03T23:17:33.806Z,87.79
2018-12-03T23:20:02.140Z,87.85
2018-12-03T23:22:30.474Z,88.07
2018-12-03T23:24:58.857Z,88.24
2018-12-03T23:27:27.191Z,88.23
2018-12-03T23:29:55.528Z,88.34
2018-12-03T23:32:23.860Z,88.11
2018-12-03T23:34:52.192Z,88.14
2018-12-03T23:37:20.525Z,88.04
2018-12-03T23:39:48.866Z,87.92
2018-12-03T23:42:17.190Z,87.82
2018-12-03T23:44:46.337Z,87.70
2018-12-03T23:47:13.853Z,87.89
2018-12-03T23:49:42.202Z,87.77
2018-12-03T23:52:10.524Z,87.77
2018-12-03T23:54:38.875Z,88.00
2018-12-03T23:57:07.192Z,87.89
2018-12-03T23:59:35.610Z,87.84
